sensor_id;sensor_type;location;lat;lon;timestamp;P1;durP1;ratioP1;P2;durP2;ratioP2
61483;SDS011;47349;55.640;37.692;2024-01-10T00:33:03;6.82;;;5.95;;
61483;SDS011;47349;55.640;37.692;2024-01-10T00:53:34;6.63;;;6.03;;
61483;SDS011;47349;55.640;37.692;2024-01-10T01:34:19;4.75;;;4.45;;
61483;SDS011;47349;55.640;37.692;2024-01-10T01:43:36;5.38;;;5.07;;
61483;SDS011;47349;55.640;37.692;2024-01-10T01:46:04;5.07;;;4.70;;
61483;SDS011;47349;55.640;37.692;2024-01-10T01:48:32;4.63;;;4.32;;
61483;SDS011;47349;55.640;37.692;2024-01-10T01:51:07;5.00;;;4.60;;
61483;SDS011;47349;55.640;37.692;2024-01-10T01:53:38;4.20;;;3.80;;
61483;SDS011;47349;55.640;37.692;2024-01-10T01:56:10;4.03;;;3.83;;
61483;SDS011;47349;55.640;37.692;2024-01-10T01:58:44;4.30;;;4.05;;
61483;SDS011;47349;55.640;37.692;2024-01-10T02:01:27;4.30;;;4.10;;
61483;SDS011;47349;55.640;37.692;2024-01-10T02:03:57;4.65;;;4.35;;
61483;SDS011;47349;55.640;37.692;2024-01-10T02:06:29;4.50;;;4.30;;
61483;SDS011;47349;55.640;37.692;2024-01-10T02:09:04;4.53;;;4.32;;
61483;SDS011;47349;55.640;37.692;2024-01-10T02:11:40;4.25;;;4.05;;
61483;SDS011;47349;55.640;37.692;2024-01-10T02:14:10;4.15;;;3.95;;
61483;SDS011;47349;55.640;37.692;2024-01-10T02:37:23;4.43;;;4.18;;
61483;SDS011;47349;55.640;37.692;2024-01-10T02:43:48;3.90;;;3.72;;
61483;SDS011;47349;55.640;37.692;2024-01-10T02:57:44;4.28;;;3.97;;
61483;SDS011;47349;55.640;37.692;2024-01-10T03:11:04;4.82;;;4.63;;
61483;SDS011;47349;55.640;37.692;2024-01-10T03:24:10;5.05;;;4.75;;
61483;SDS011;47349;55.640;37.692;2024-01-10T03:37:48;6.28;;;5.88;;
61483;SDS011;47349;55.640;37.692;2024-01-10T03:40:25;6.32;;;5.93;;
61483;SDS011;47349;55.640;37.692;2024-01-10T03:42:56;8.82;;;7.32;;
61483;SDS011;47349;55.640;37.692;2024-01-10T03:45:44;12.63;;;9.75;;
61483;SDS011;47349;55.640;37.692;2024-01-10T03:48:24;10.80;;;9.60;;
61483;SDS011;47349;55.640;37.692;2024-01-10T03:51:15;14.07;;;9.50;;
61483;SDS011;47349;55.640;37.692;2024-01-10T04:07:16;12.80;;;10.88;;
61483;SDS011;47349;55.640;37.692;2024-01-10T04:09:50;16.55;;;10.35;;
61483;SDS011;47349;55.640;37.692;2024-01-10T04:12:17;11.30;;;9.63;;
61483;SDS011;47349;55.640;37.692;2024-01-10T04:14:45;14.82;;;11.63;;
61483;SDS011;47349;55.640;37.692;2024-01-10T04:17:12;15.70;;;10.68;;
61483;SDS011;47349;55.640;37.692;2024-01-10T04:19:45;15.05;;;11.32;;
61483;SDS011;47349;55.640;37.692;2024-01-10T04:22:12;12.27;;;9.60;;
61483;SDS011;47349;55.640;37.692;2024-01-10T04:24:39;13.48;;;9.68;;
61483;SDS011;47349;55.640;37.692;2024-01-10T04:27:07;11.82;;;9.55;;
61483;SDS011;47349;55.640;37.692;2024-01-10T04:29:36;10.45;;;9.45;;
61483;SDS011;47349;55.640;37.692;2024-01-10T04:32:05;14.27;;;9.10;;
61483;SDS011;47349;55.640;37.692;2024-01-10T04:34:59;11.90;;;10.60;;
61483;SDS011;47349;55.640;37.692;2024-01-10T04:37:31;10.57;;;9.48;;
61483;SDS011;47349;55.640;37.692;2024-01-10T04:39:58;13.10;;;8.75;;
61483;SDS011;47349;55.640;37.692;2024-01-10T04:42:29;10.73;;;9.63;;
61483;SDS011;47349;55.640;37.692;2024-01-10T04:45:00;14.02;;;10.70;;
61483;SDS011;47349;55.640;37.692;2024-01-10T04:47:34;12.05;;;10.35;;
61483;SDS011;47349;55.640;37.692;2024-01-10T04:50:02;11.43;;;10.18;;
61483;SDS011;47349;55.640;37.692;2024-01-10T04:52:35;11.10;;;9.65;;
61483;SDS011;47349;55.640;37.692;2024-01-10T04:55:17;13.32;;;10.10;;
61483;SDS011;47349;55.640;37.692;2024-01-10T04:57:58;13.95;;;9.75;;
61483;SDS011;47349;55.640;37.692;2024-01-10T05:00:33;13.57;;;10.13;;
61483;SDS011;47349;55.640;37.692;2024-01-10T05:03:01;14.85;;;9.32;;
61483;SDS011;47349;55.640;37.692;2024-01-10T05:05:40;11.55;;;10.20;;
61483;SDS011;47349;55.640;37.692;2024-01-10T05:08:07;14.60;;;11.40;;
61483;SDS011;47349;55.640;37.692;2024-01-10T05:10:35;15.13;;;11.98;;
61483;SDS011;47349;55.640;37.692;2024-01-10T05:13:02;14.45;;;11.77;;
61483;SDS011;47349;55.640;37.692;2024-01-10T05:15:30;13.95;;;9.90;;
61483;SDS011;47349;55.640;37.692;2024-01-10T05:17:57;15.70;;;11.88;;
61483;SDS011;47349;55.640;37.692;2024-01-10T05:20:34;16.35;;;11.55;;
61483;SDS011;47349;55.640;37.692;2024-01-10T05:23:15;12.82;;;11.07;;
61483;SDS011;47349;55.640;37.692;2024-01-10T05:26:02;19.20;;;13.73;;
61483;SDS011;47349;55.640;37.692;2024-01-10T05:28:31;14.43;;;10.75;;
61483;SDS011;47349;55.640;37.692;2024-01-10T05:31:09;14.18;;;12.13;;
61483;SDS011;47349;55.640;37.692;2024-01-10T05:33:51;16.58;;;10.50;;
61483;SDS011;47349;55.640;37.692;2024-01-10T05:36:23;14.73;;;10.40;;
61483;SDS011;47349;55.640;37.692;2024-01-10T05:39:00;11.95;;;10.05;;
61483;SDS011;47349;55.640;37.692;2024-01-10T05:41:48;11.80;;;10.60;;
61483;SDS011;47349;55.640;37.692;2024-01-10T05:44:25;13.20;;;11.63;;
61483;SDS011;47349;55.640;37.692;2024-01-10T05:46:53;16.00;;;11.65;;
61483;SDS011;47349;55.640;37.692;2024-01-10T05:49:52;11.20;;;10.20;;
61483;SDS011;47349;55.640;37.692;2024-01-10T05:52:20;10.50;;;9.25;;
61483;SDS011;47349;55.640;37.692;2024-01-10T05:54:49;13.73;;;10.07;;
61483;SDS011;47349;55.640;37.692;2024-01-10T05:57:17;11.05;;;9.95;;
61483;SDS011;47349;55.640;37.692;2024-01-10T05:59:49;10.57;;;9.45;;
61483;SDS011;47349;55.640;37.692;2024-01-10T06:02:20;11.02;;;10.00;;
61483;SDS011;47349;55.640;37.692;2024-01-10T06:04:52;11.32;;;10.30;;
61483;SDS011;47349;55.640;37.692;2024-01-10T06:07:20;15.30;;;11.48;;
61483;SDS011;47349;55.640;37.692;2024-01-10T06:09:49;10.70;;;8.93;;
61483;SDS011;47349;55.640;37.692;2024-01-10T06:12:54;14.55;;;10.68;;
61483;SDS011;47349;55.640;37.692;2024-01-10T06:16:06;11.60;;;9.27;;
61483;SDS011;47349;55.640;37.692;2024-01-10T06:18:34;12.32;;;9.98;;
61483;SDS011;47349;55.640;37.692;2024-01-10T06:21:03;12.27;;;10.05;;
61483;SDS011;47349;55.640;37.692;2024-01-10T06:23:35;11.02;;;9.25;;
61483;SDS011;47349;55.640;37.692;2024-01-10T06:26:02;11.68;;;9.32;;
61483;SDS011;47349;55.640;37.692;2024-01-10T06:28:30;11.18;;;10.02;;
61483;SDS011;47349;55.640;37.692;2024-01-10T06:31:00;13.20;;;11.90;;
61483;SDS011;47349;55.640;37.692;2024-01-10T06:33:30;10.65;;;9.63;;
61483;SDS011;47349;55.640;37.692;2024-01-10T06:35:58;10.90;;;9.90;;
61483;SDS011;47349;55.640;37.692;2024-01-10T06:38:25;12.98;;;10.00;;
61483;SDS011;47349;55.640;37.692;2024-01-10T06:40:53;11.48;;;10.13;;
61483;SDS011;47349;55.640;37.692;2024-01-10T06:43:24;12.45;;;10.32;;
61483;SDS011;47349;55.640;37.692;2024-01-10T06:45:53;11.80;;;10.65;;
61483;SDS011;47349;55.640;37.692;2024-01-10T06:48:23;11.38;;;9.32;;
61483;SDS011;47349;55.640;37.692;2024-01-10T06:50:51;15.93;;;10.70;;
61483;SDS011;47349;55.640;37.692;2024-01-10T06:53:18;11.27;;;9.57;;
61483;SDS011;47349;55.640;37.692;2024-01-10T06:55:45;11.63;;;9.68;;
61483;SDS011;47349;55.640;37.692;2024-01-10T06:58:13;12.68;;;11.05;;
61483;SDS011;47349;55.640;37.692;2024-01-10T07:00:40;13.77;;;11.30;;
61483;SDS011;47349;55.640;37.692;2024-01-10T07:03:08;12.00;;;10.77;;
61483;SDS011;47349;55.640;37.692;2024-01-10T07:05:36;10.95;;;9.85;;
61483;SDS011;47349;55.640;37.692;2024-01-10T07:10:52;11.77;;;9.73;;
61483;SDS011;47349;55.640;37.692;2024-01-10T07:13:26;14.48;;;9.55;;
61483;SDS011;47349;55.640;37.692;2024-01-10T07:15:59;14.45;;;10.25;;
61483;SDS011;47349;55.640;37.692;2024-01-10T07:18:29;10.13;;;9.20;;
61483;SDS011;47349;55.640;37.692;2024-01-10T07:20:57;11.60;;;10.05;;
61483;SDS011;47349;55.640;37.692;2024-01-10T07:23:25;8.77;;;7.70;;
61483;SDS011;47349;55.640;37.692;2024-01-10T07:25:54;10.57;;;8.98;;
61483;SDS011;47349;55.640;37.692;2024-01-10T07:28:22;9.70;;;8.80;;
61483;SDS011;47349;55.640;37.692;2024-01-10T07:30:50;20.10;;;13.23;;
61483;SDS011;47349;55.640;37.692;2024-01-10T07:33:18;10.82;;;9.75;;
61483;SDS011;47349;55.640;37.692;2024-01-10T07:35:48;15.27;;;11.77;;
61483;SDS011;47349;55.640;37.692;2024-01-10T07:38:36;10.63;;;9.50;;
61483;SDS011;47349;55.640;37.692;2024-01-10T07:41:06;12.45;;;10.55;;
61483;SDS011;47349;55.640;37.692;2024-01-10T07:43:34;10.10;;;9.20;;
61483;SDS011;47349;55.640;37.692;2024-01-10T07:46:02;12.80;;;10.88;;
61483;SDS011;47349;55.640;37.692;2024-01-10T07:48:29;11.13;;;9.95;;
61483;SDS011;47349;55.640;37.692;2024-01-10T07:51:01;12.10;;;10.90;;
61483;SDS011;47349;55.640;37.692;2024-01-10T07:53:30;13.60;;;10.15;;
61483;SDS011;47349;55.640;37.692;2024-01-10T07:55:57;12.98;;;10.05;;
61483;SDS011;47349;55.640;37.692;2024-01-10T07:58:25;10.25;;;9.15;;
61483;SDS011;47349;55.640;37.692;2024-01-10T08:00:52;13.70;;;10.80;;
61483;SDS011;47349;55.640;37.692;2024-01-10T08:03:22;11.52;;;10.07;;
61483;SDS011;47349;55.640;37.692;2024-01-10T08:05:54;9.13;;;8.48;;
61483;SDS011;47349;55.640;37.692;2024-01-10T08:08:21;9.68;;;8.80;;
61483;SDS011;47349;55.640;37.692;2024-01-10T08:10:49;10.27;;;9.07;;
61483;SDS011;47349;55.640;37.692;2024-01-10T08:13:17;11.65;;;9.65;;
61483;SDS011;47349;55.640;37.692;2024-01-10T08:15:45;12.40;;;9.80;;
61483;SDS011;47349;55.640;37.692;2024-01-10T08:18:15;13.50;;;10.65;;
61483;SDS011;47349;55.640;37.692;2024-01-10T08:20:42;12.40;;;9.77;;
61483;SDS011;47349;55.640;37.692;2024-01-10T08:23:14;10.65;;;8.93;;
61483;SDS011;47349;55.640;37.692;2024-01-10T08:25:41;10.88;;;9.80;;
61483;SDS011;47349;55.640;37.692;2024-01-10T08:28:11;13.98;;;10.13;;
61483;SDS011;47349;55.640;37.692;2024-01-10T08:30:41;13.40;;;9.35;;
61483;SDS011;47349;55.640;37.692;2024-01-10T08:33:11;12.80;;;9.68;;
61483;SDS011;47349;55.640;37.692;2024-01-10T08:35:39;14.15;;;10.68;;
61483;SDS011;47349;55.640;37.692;2024-01-10T08:38:13;12.60;;;9.52;;
61483;SDS011;47349;55.640;37.692;2024-01-10T08:40:41;10.18;;;9.15;;
61483;SDS011;47349;55.640;37.692;2024-01-10T08:43:08;15.40;;;9.93;;
61483;SDS011;47349;55.640;37.692;2024-01-10T08:45:38;15.80;;;11.02;;
61483;SDS011;47349;55.640;37.692;2024-01-10T08:48:09;10.23;;;9.38;;
61483;SDS011;47349;55.640;37.692;2024-01-10T08:50:38;10.98;;;9.93;;
61483;SDS011;47349;55.640;37.692;2024-01-10T08:53:05;13.63;;;9.48;;
61483;SDS011;47349;55.640;37.692;2024-01-10T08:55:33;12.23;;;9.93;;
61483;SDS011;47349;55.640;37.692;2024-01-10T08:58:00;15.63;;;10.55;;
61483;SDS011;47349;55.640;37.692;2024-01-10T09:00:31;11.00;;;9.85;;
61483;SDS011;47349;55.640;37.692;2024-01-10T09:03:07;11.23;;;9.43;;
61483;SDS011;47349;55.640;37.692;2024-01-10T09:05:35;13.98;;;10.25;;
61483;SDS011;47349;55.640;37.692;2024-01-10T09:08:03;12.88;;;10.05;;
61483;SDS011;47349;55.640;37.692;2024-01-10T09:10:38;13.60;;;11.05;;
61483;SDS011;47349;55.640;37.692;2024-01-10T09:13:06;11.40;;;9.43;;
61483;SDS011;47349;55.640;37.692;2024-01-10T09:15:34;10.90;;;8.82;;
61483;SDS011;47349;55.640;37.692;2024-01-10T09:18:02;12.30;;;10.38;;
61483;SDS011;47349;55.640;37.692;2024-01-10T09:20:30;12.50;;;9.75;;
61483;SDS011;47349;55.640;37.692;2024-01-10T09:23:07;12.45;;;8.68;;
61483;SDS011;47349;55.640;37.692;2024-01-10T09:25:38;12.48;;;9.13;;
61483;SDS011;47349;55.640;37.692;2024-01-10T09:28:09;10.93;;;9.90;;
61483;SDS011;47349;55.640;37.692;2024-01-10T09:30:52;14.23;;;10.30;;
61483;SDS011;47349;55.640;37.692;2024-01-10T09:33:21;11.95;;;10.23;;
61483;SDS011;47349;55.640;37.692;2024-01-10T09:35:50;8.82;;;7.93;;
61483;SDS011;47349;55.640;37.692;2024-01-10T09:38:17;12.25;;;10.57;;
61483;SDS011;47349;55.640;37.692;2024-01-10T09:40:52;13.25;;;10.13;;
61483;SDS011;47349;55.640;37.692;2024-01-10T09:43:32;13.38;;;9.68;;
61483;SDS011;47349;55.640;37.692;2024-01-10T09:46:00;16.38;;;11.05;;
61483;SDS011;47349;55.640;37.692;2024-01-10T09:48:30;9.90;;;8.63;;
61483;SDS011;47349;55.640;37.692;2024-01-10T09:51:01;12.35;;;9.93;;
61483;SDS011;47349;55.640;37.692;2024-01-10T09:53:30;11.88;;;9.52;;
61483;SDS011;47349;55.640;37.692;2024-01-10T09:56:05;13.13;;;11.32;;
61483;SDS011;47349;55.640;37.692;2024-01-10T09:58:35;12.48;;;10.52;;
61483;SDS011;47349;55.640;37.692;2024-01-10T10:01:06;13.85;;;11.10;;
61483;SDS011;47349;55.640;37.692;2024-01-10T10:03:36;16.58;;;12.73;;
61483;SDS011;47349;55.640;37.692;2024-01-10T10:06:10;17.58;;;10.35;;
61483;SDS011;47349;55.640;37.692;2024-01-10T10:08:42;16.02;;;11.63;;
61483;SDS011;47349;55.640;37.692;2024-01-10T10:11:19;11.00;;;9.97;;
61483;SDS011;47349;55.640;37.692;2024-01-10T10:13:51;14.63;;;11.43;;
61483;SDS011;47349;55.640;37.692;2024-01-10T10:16:23;23.77;;;10.70;;
61483;SDS011;47349;55.640;37.692;2024-01-10T10:18:55;8.45;;;7.75;;
61483;SDS011;47349;55.640;37.692;2024-01-10T10:21:27;7.60;;;6.90;;
61483;SDS011;47349;55.640;37.692;2024-01-10T10:24:00;12.73;;;10.57;;
61483;SDS011;47349;55.640;37.692;2024-01-10T10:26:34;15.65;;;11.73;;
61483;SDS011;47349;55.640;37.692;2024-01-10T10:29:02;16.50;;;11.15;;
61483;SDS011;47349;55.640;37.692;2024-01-10T10:31:33;14.30;;;10.85;;
61483;SDS011;47349;55.640;37.692;2024-01-10T10:34:00;19.40;;;12.10;;
61483;SDS011;47349;55.640;37.692;2024-01-10T10:36:31;19.45;;;11.45;;
61483;SDS011;47349;55.640;37.692;2024-01-10T10:39:00;12.35;;;10.50;;
61483;SDS011;47349;55.640;37.692;2024-01-10T10:41:34;17.02;;;12.25;;
61483;SDS011;47349;55.640;37.692;2024-01-10T10:44:02;17.42;;;10.30;;
61483;SDS011;47349;55.640;37.692;2024-01-10T10:46:36;17.35;;;10.82;;
61483;SDS011;47349;55.640;37.692;2024-01-10T10:49:06;16.83;;;11.25;;
61483;SDS011;47349;55.640;37.692;2024-01-10T10:51:42;15.43;;;11.65;;
61483;SDS011;47349;55.640;37.692;2024-01-10T10:54:10;16.40;;;11.50;;
61483;SDS011;47349;55.640;37.692;2024-01-10T10:56:47;18.13;;;13.38;;
61483;SDS011;47349;55.640;37.692;2024-01-10T10:59:17;19.52;;;13.13;;
61483;SDS011;47349;55.640;37.692;2024-01-10T11:01:47;15.40;;;12.30;;
61483;SDS011;47349;55.640;37.692;2024-01-10T11:04:16;16.83;;;12.63;;
61483;SDS011;47349;55.640;37.692;2024-01-10T11:06:44;14.27;;;10.38;;
61483;SDS011;47349;55.640;37.692;2024-01-10T11:09:12;15.48;;;12.55;;
61483;SDS011;47349;55.640;37.692;2024-01-10T11:17:52;19.25;;;12.52;;
61483;SDS011;47349;55.640;37.692;2024-01-10T11:21:39;17.05;;;12.82;;
61483;SDS011;47349;55.640;37.692;2024-01-10T11:23:51;19.40;;;12.98;;
61483;SDS011;47349;55.640;37.692;2024-01-10T11:26:25;18.50;;;12.35;;
61483;SDS011;47349;55.640;37.692;2024-01-10T11:28:56;19.15;;;12.82;;
61483;SDS011;47349;55.640;37.692;2024-01-10T11:31:30;21.73;;;14.45;;
61483;SDS011;47349;55.640;37.692;2024-01-10T11:34:02;17.00;;;10.77;;
61483;SDS011;47349;55.640;37.692;2024-01-10T11:36:31;17.75;;;12.40;;
61483;SDS011;47349;55.640;37.692;2024-01-10T11:39:07;19.55;;;13.43;;
61483;SDS011;47349;55.640;37.692;2024-01-10T11:41:38;16.00;;;12.63;;
61483;SDS011;47349;55.640;37.692;2024-01-10T11:46:46;18.48;;;13.23;;
61483;SDS011;47349;55.640;37.692;2024-01-10T11:49:16;16.02;;;13.35;;
61483;SDS011;47349;55.640;37.692;2024-01-10T11:51:57;18.48;;;13.07;;
61483;SDS011;47349;55.640;37.692;2024-01-10T11:54:44;17.70;;;14.10;;
61483;SDS011;47349;55.640;37.692;2024-01-10T11:57:18;25.05;;;15.00;;
61483;SDS011;47349;55.640;37.692;2024-01-10T11:59:55;24.23;;;14.15;;
61483;SDS011;47349;55.640;37.692;2024-01-10T12:02:23;16.20;;;12.73;;
61483;SDS011;47349;55.640;37.692;2024-01-10T12:04:53;16.40;;;12.85;;
61483;SDS011;47349;55.640;37.692;2024-01-10T12:07:21;18.58;;;12.52;;
61483;SDS011;47349;55.640;37.692;2024-01-10T12:09:58;18.98;;;12.77;;
61483;SDS011;47349;55.640;37.692;2024-01-10T12:12:26;17.40;;;12.98;;
61483;SDS011;47349;55.640;37.692;2024-01-10T12:14:54;16.35;;;11.38;;
61483;SDS011;47349;55.640;37.692;2024-01-10T12:17:26;23.00;;;12.40;;
61483;SDS011;47349;55.640;37.692;2024-01-10T12:20:02;17.35;;;11.85;;
61483;SDS011;47349;55.640;37.692;2024-01-10T12:22:46;18.77;;;13.70;;
61483;SDS011;47349;55.640;37.692;2024-01-10T12:25:20;12.77;;;11.40;;
61483;SDS011;47349;55.640;37.692;2024-01-10T12:27:50;16.63;;;12.93;;
61483;SDS011;47349;55.640;37.692;2024-01-10T12:30:30;15.07;;;12.80;;
61483;SDS011;47349;55.640;37.692;2024-01-10T12:33:00;17.63;;;13.52;;
61483;SDS011;47349;55.640;37.692;2024-01-10T12:35:28;22.13;;;12.98;;
61483;SDS011;47349;55.640;37.692;2024-01-10T12:38:02;16.80;;;12.27;;
61483;SDS011;47349;55.640;37.692;2024-01-10T12:40:34;17.58;;;13.10;;
61483;SDS011;47349;55.640;37.692;2024-01-10T12:43:05;17.73;;;13.27;;
61483;SDS011;47349;55.640;37.692;2024-01-10T12:45:34;27.92;;;17.42;;
61483;SDS011;47349;55.640;37.692;2024-01-10T12:48:03;12.32;;;10.20;;
61483;SDS011;47349;55.640;37.692;2024-01-10T12:50:33;17.33;;;12.98;;
61483;SDS011;47349;55.640;37.692;2024-01-10T12:53:01;18.98;;;13.80;;
61483;SDS011;47349;55.640;37.692;2024-01-10T12:55:28;18.70;;;13.45;;
61483;SDS011;47349;55.640;37.692;2024-01-10T12:57:56;17.40;;;14.15;;
61483;SDS011;47349;55.640;37.692;2024-01-10T13:00:33;14.45;;;11.40;;
61483;SDS011;47349;55.640;37.692;2024-01-10T13:03:04;14.32;;;11.23;;
61483;SDS011;47349;55.640;37.692;2024-01-10T13:05:31;22.30;;;15.32;;
61483;SDS011;47349;55.640;37.692;2024-01-10T13:07:59;20.00;;;12.02;;
61483;SDS011;47349;55.640;37.692;2024-01-10T13:10:28;14.43;;;10.65;;
61483;SDS011;47349;55.640;37.692;2024-01-10T13:12:59;16.30;;;13.10;;
61483;SDS011;47349;55.640;37.692;2024-01-10T13:15:26;14.63;;;11.48;;
61483;SDS011;47349;55.640;37.692;2024-01-10T13:18:00;15.07;;;13.07;;
61483;SDS011;47349;55.640;37.692;2024-01-10T13:20:28;10.98;;;9.82;;
61483;SDS011;47349;55.640;37.692;2024-01-10T13:23:02;11.32;;;9.63;;
61483;SDS011;47349;55.640;37.692;2024-01-10T13:25:30;23.48;;;13.50;;
61483;SDS011;47349;55.640;37.692;2024-01-10T13:27:59;18.52;;;12.52;;
61483;SDS011;47349;55.640;37.692;2024-01-10T13:30:36;20.40;;;13.75;;
61483;SDS011;47349;55.640;37.692;2024-01-10T13:33:03;12.38;;;11.02;;
61483;SDS011;47349;55.640;37.692;2024-01-10T13:35:31;20.48;;;13.65;;
61483;SDS011;47349;55.640;37.692;2024-01-10T13:37:59;19.25;;;15.25;;
61483;SDS011;47349;55.640;37.692;2024-01-10T13:40:27;16.13;;;14.02;;
61483;SDS011;47349;55.640;37.692;2024-01-10T13:42:57;14.98;;;12.25;;
61483;SDS011;47349;55.640;37.692;2024-01-10T13:45:25;15.50;;;13.55;;
61483;SDS011;47349;55.640;37.692;2024-01-10T13:47:53;14.00;;;12.07;;
61483;SDS011;47349;55.640;37.692;2024-01-10T13:50:22;15.73;;;11.82;;
61483;SDS011;47349;55.640;37.692;2024-01-10T13:52:51;18.88;;;15.90;;
61483;SDS011;47349;55.640;37.692;2024-01-10T13:55:26;18.50;;;14.05;;
61483;SDS011;47349;55.640;37.692;2024-01-10T13:57:54;23.55;;;14.23;;
61483;SDS011;47349;55.640;37.692;2024-01-10T14:00:25;19.05;;;14.10;;
61483;SDS011;47349;55.640;37.692;2024-01-10T14:02:55;19.48;;;13.18;;
61483;SDS011;47349;55.640;37.692;2024-01-10T14:05:27;13.40;;;11.65;;
61483;SDS011;47349;55.640;37.692;2024-01-10T14:07:55;18.02;;;13.13;;
61483;SDS011;47349;55.640;37.692;2024-01-10T14:10:25;18.48;;;13.27;;
61483;SDS011;47349;55.640;37.692;2024-01-10T14:12:53;19.48;;;14.65;;
61483;SDS011;47349;55.640;37.692;2024-01-10T14:15:23;22.85;;;14.80;;
61483;SDS011;47349;55.640;37.692;2024-01-10T14:17:51;21.13;;;14.88;;
61483;SDS011;47349;55.640;37.692;2024-01-10T14:23:15;22.08;;;14.27;;
61483;SDS011;47349;55.640;37.692;2024-01-10T14:25:57;15.55;;;11.00;;
61483;SDS011;47349;55.640;37.692;2024-01-10T14:28:26;24.52;;;13.73;;
61483;SDS011;47349;55.640;37.692;2024-01-10T14:30:58;20.95;;;15.40;;
61483;SDS011;47349;55.640;37.692;2024-01-10T14:33:47;20.63;;;15.30;;
61483;SDS011;47349;55.640;37.692;2024-01-10T14:36:17;21.42;;;16.23;;
61483;SDS011;47349;55.640;37.692;2024-01-10T14:38:58;23.33;;;14.75;;
61483;SDS011;47349;55.640;37.692;2024-01-10T14:41:26;18.05;;;14.77;;
61483;SDS011;47349;55.640;37.692;2024-01-10T14:44:09;25.90;;;15.75;;
61483;SDS011;47349;55.640;37.692;2024-01-10T14:46:42;15.23;;;12.95;;
61483;SDS011;47349;55.640;37.692;2024-01-10T14:49:22;20.73;;;14.55;;
61483;SDS011;47349;55.640;37.692;2024-01-10T14:51:50;16.80;;;12.13;;
61483;SDS011;47349;55.640;37.692;2024-01-10T14:54:17;20.55;;;15.23;;
61483;SDS011;47349;55.640;37.692;2024-01-10T14:56:46;20.13;;;13.05;;
61483;SDS011;47349;55.640;37.692;2024-01-10T14:59:15;15.30;;;11.75;;
61483;SDS011;47349;55.640;37.692;2024-01-10T15:01:49;19.60;;;14.07;;
61483;SDS011;47349;55.640;37.692;2024-01-10T15:04:37;17.30;;;13.82;;
61483;SDS011;47349;55.640;37.692;2024-01-10T15:07:11;12.40;;;10.52;;
61483;SDS011;47349;55.640;37.692;2024-01-10T15:09:45;14.13;;;11.65;;
61483;SDS011;47349;55.640;37.692;2024-01-10T15:12:15;20.02;;;14.60;;
61483;SDS011;47349;55.640;37.692;2024-01-10T15:14:52;15.55;;;13.80;;
61483;SDS011;47349;55.640;37.692;2024-01-10T15:17:22;14.38;;;12.98;;
61483;SDS011;47349;55.640;37.692;2024-01-10T15:19:54;14.02;;;12.07;;
61483;SDS011;47349;55.640;37.692;2024-01-10T15:22:23;16.08;;;13.38;;
61483;SDS011;47349;55.640;37.692;2024-01-10T15:24:51;21.77;;;15.23;;
61483;SDS011;47349;55.640;37.692;2024-01-10T15:27:20;17.60;;;13.13;;
61483;SDS011;47349;55.640;37.692;2024-01-10T15:29:47;18.20;;;13.27;;
61483;SDS011;47349;55.640;37.692;2024-01-10T15:32:31;18.67;;;12.27;;
61483;SDS011;47349;55.640;37.692;2024-01-10T15:34:59;17.42;;;13.07;;
61483;SDS011;47349;55.640;37.692;2024-01-10T15:37:32;16.73;;;13.40;;
61483;SDS011;47349;55.640;37.692;2024-01-10T15:39:59;19.10;;;15.18;;
61483;SDS011;47349;55.640;37.692;2024-01-10T15:42:28;19.50;;;15.38;;
61483;SDS011;47349;55.640;37.692;2024-01-10T15:44:55;13.60;;;11.77;;
61483;SDS011;47349;55.640;37.692;2024-01-10T15:47:22;20.60;;;14.55;;
61483;SDS011;47349;55.640;37.692;2024-01-10T15:49:50;15.63;;;12.52;;
61483;SDS011;47349;55.640;37.692;2024-01-10T15:52:20;20.05;;;13.70;;
61483;SDS011;47349;55.640;37.692;2024-01-10T15:54:53;17.20;;;11.38;;
61483;SDS011;47349;55.640;37.692;2024-01-10T15:57:26;15.40;;;13.38;;
61483;SDS011;47349;55.640;37.692;2024-01-10T15:59:57;13.57;;;11.98;;
61483;SDS011;47349;55.640;37.692;2024-01-10T16:02:30;21.42;;;14.10;;
61483;SDS011;47349;55.640;37.692;2024-01-10T16:04:58;17.60;;;13.73;;
61483;SDS011;47349;55.640;37.692;2024-01-10T16:07:27;13.27;;;10.98;;
61483;SDS011;47349;55.640;37.692;2024-01-10T16:09:57;15.73;;;12.55;;
61483;SDS011;47349;55.640;37.692;2024-01-10T16:12:26;13.45;;;12.00;;
61483;SDS011;47349;55.640;37.692;2024-01-10T16:15:06;19.67;;;14.05;;
61483;SDS011;47349;55.640;37.692;2024-01-10T16:17:37;17.63;;;12.75;;
61483;SDS011;47349;55.640;37.692;2024-01-10T16:20:05;24.13;;;14.63;;
61483;SDS011;47349;55.640;37.692;2024-01-10T16:22:34;13.25;;;11.70;;
61483;SDS011;47349;55.640;37.692;2024-01-10T16:25:01;18.75;;;12.82;;
61483;SDS011;47349;55.640;37.692;2024-01-10T16:27:30;16.95;;;12.27;;
61483;SDS011;47349;55.640;37.692;2024-01-10T16:29:59;19.70;;;14.15;;
61483;SDS011;47349;55.640;37.692;2024-01-10T16:32:27;16.30;;;12.45;;
61483;SDS011;47349;55.640;37.692;2024-01-10T16:34:57;14.02;;;12.55;;
61483;SDS011;47349;55.640;37.692;2024-01-10T16:37:25;15.98;;;11.02;;
61483;SDS011;47349;55.640;37.692;2024-01-10T16:39:53;17.20;;;12.20;;
61483;SDS011;47349;55.640;37.692;2024-01-10T16:42:20;19.45;;;12.52;;
61483;SDS011;47349;55.640;37.692;2024-01-10T16:44:49;14.55;;;11.90;;
61483;SDS011;47349;55.640;37.692;2024-01-10T16:47:16;14.55;;;10.55;;
61483;SDS011;47349;55.640;37.692;2024-01-10T16:49:44;18.33;;;13.60;;
61483;SDS011;47349;55.640;37.692;2024-01-10T16:52:12;14.18;;;11.02;;
61483;SDS011;47349;55.640;37.692;2024-01-10T16:54:39;20.88;;;13.23;;
61483;SDS011;47349;55.640;37.692;2024-01-10T16:57:07;18.25;;;12.70;;
61483;SDS011;47349;55.640;37.692;2024-01-10T16:59:34;12.85;;;11.55;;
61483;SDS011;47349;55.640;37.692;2024-01-10T17:02:06;14.68;;;12.02;;
61483;SDS011;47349;55.640;37.692;2024-01-10T17:04:34;17.20;;;13.07;;
61483;SDS011;47349;55.640;37.692;2024-01-10T17:07:02;14.57;;;10.40;;
61483;SDS011;47349;55.640;37.692;2024-01-10T17:09:31;19.55;;;11.90;;
61483;SDS011;47349;55.640;37.692;2024-01-10T17:12:00;17.67;;;12.23;;
61483;SDS011;47349;55.640;37.692;2024-01-10T17:14:31;14.75;;;11.95;;
61483;SDS011;47349;55.640;37.692;2024-01-10T17:17:02;18.65;;;13.10;;
61483;SDS011;47349;55.640;37.692;2024-01-10T17:19:31;15.15;;;11.65;;
61483;SDS011;47349;55.640;37.692;2024-01-10T17:21:59;17.65;;;13.80;;
61483;SDS011;47349;55.640;37.692;2024-01-10T17:24:26;15.23;;;9.93;;
61483;SDS011;47349;55.640;37.692;2024-01-10T17:26:53;13.63;;;10.68;;
61483;SDS011;47349;55.640;37.692;2024-01-10T17:29:21;16.00;;;12.43;;
61483;SDS011;47349;55.640;37.692;2024-01-10T17:31:48;16.75;;;12.63;;
61483;SDS011;47349;55.640;37.692;2024-01-10T17:34:26;17.33;;;13.80;;
61483;SDS011;47349;55.640;37.692;2024-01-10T17:36:58;14.70;;;11.77;;
61483;SDS011;47349;55.640;37.692;2024-01-10T17:39:28;17.58;;;13.45;;
61483;SDS011;47349;55.640;37.692;2024-01-10T17:41:55;16.00;;;11.38;;
61483;SDS011;47349;55.640;37.692;2024-01-10T17:44:25;18.55;;;11.88;;
61483;SDS011;47349;55.640;37.692;2024-01-10T17:46:53;16.77;;;13.15;;
61483;SDS011;47349;55.640;37.692;2024-01-10T17:49:25;17.35;;;12.63;;